createdAt,value
2018-09-21T00:01:47.763Z,81.21
2018-09-21T00:04:16.706Z,80.76
2018-09-21T00:06:45.626Z,80.62
2018-09-21T00:09:14.648Z,80.67
2018-09-21T00:11:43.552Z,80.87
2018-09-21T00:14:12.462Z,80.33
2018-09-21T00:16:41.430Z,80.56
2018-09-21T00:19:10.371Z,80.10
2018-09-21T00:21:39.275Z,79.67
2018-09-21T00:24:08.223Z,79.62
2018-09-21T00:26:37.141Z,79.74
2018-09-21T00:29:06.055Z,80.43
2018-09-21T00:31:35.024Z,81.01
2018-09-21T00:34:03.958Z,80.79
2018-09-21T00:36:32.866Z,80.72
2018-09-21T00:39:01.900Z,80.98
2018-09-21T00:41:30.842Z,81.56
2018-09-21T00:43:59.775Z,82.00
2018-09-21T00:46:28.735Z,81.60
2018-09-21T00:48:57.632Z,81.28
2018-09-21T00:51:26.543Z,80.57
2018-09-21T00:53:56.816Z,80.95
2018-09-21T00:56:25.605Z,80.57
2018-09-21T00:58:54.763Z,80.64
2018-09-21T01:01:23.769Z,80.24
2018-09-21T01:03:52.606Z,80.26
2018-09-21T01:06:21.444Z,80.24
2018-09-21T01:08:50.330Z,79.96
2018-09-21T01:11:19.182Z,79.81
2018-09-21T01:13:48.030Z,79.56
2018-09-21T01:16:16.899Z,79.50
2018-09-21T01:18:45.717Z,79.48
2018-09-21T01:21:14.562Z,78.86
2018-09-21T01:23:43.463Z,79.33
2018-09-21T01:26:12.359Z,79.88
2018-09-21T01:28:41.239Z,79.51
2018-09-21T01:31:10.122Z,79.51
2018-09-21T01:33:38.947Z,79.52
2018-09-21T01:36:07.829Z,79.24
2018-09-21T01:38:36.703Z,79.31
2018-09-21T01:41:05.553Z,79.82
2018-09-21T01:43:34.382Z,80.07
2018-09-21T01:46:04.826Z,79.69
2018-09-21T01:48:33.653Z,79.01
2018-09-21T01:51:02.803Z,79.87
2018-09-21T01:53:32.494Z,80.51
2018-09-21T01:56:01.310Z,80.75
2018-09-21T01:58:30.146Z,80.27
2018-09-21T02:01:00.217Z,81.61
2018-09-21T02:03:29.017Z,80.89
2018-09-21T02:05:57.857Z,81.77
2018-09-21T02:08:26.646Z,81.35
2018-09-21T02:10:55.547Z,81.77
2018-09-21T02:13:24.458Z,81.34
2018-09-21T02:15:53.414Z,82.00
2018-09-21T02:18:22.245Z,83.82
2018-09-21T02:20:51.108Z,83.63
2018-09-21T02:23:19.946Z,83.61
2018-09-21T02:25:48.794Z,83.43
2018-09-21T02:28:17.630Z,85.15
2018-09-21T02:30:46.479Z,84.77
2018-09-21T02:33:15.362Z,84.00
2018-09-21T02:35:44.187Z,84.57
2018-09-21T02:38:12.993Z,84.31
2018-09-21T02:40:43.112Z,84.29
2018-09-21T02:43:11.929Z,84.25
2018-09-21T02:45:40.753Z,83.81
2018-09-21T02:48:09.590Z,83.61
2018-09-21T02:50:38.388Z,83.03
2018-09-21T02:53:07.227Z,83.68
2018-09-21T02:55:36.116Z,83.38
2018-09-21T02:58:05.026Z,84.13
2018-09-21T03:00:33.959Z,84.54
2018-09-21T03:03:04.153Z,84.61
2018-09-21T03:05:33.109Z,83.55
2018-09-21T03:08:01.968Z,83.39
2018-09-21T03:10:32.065Z,83.24
2018-09-21T03:13:01.173Z,82.15
2018-09-21T03:15:30.027Z,79.84
2018-09-21T03:17:58.854Z,82.54
2018-09-21T03:20:29.092Z,81.61
2018-09-21T03:22:57.986Z,82.14
2018-09-21T03:25:26.858Z,82.27
2018-09-21T03:27:55.741Z,81.89
2018-09-21T03:30:24.664Z,82.63
2018-09-21T03:32:53.479Z,80.02
2018-09-21T03:35:22.323Z,79.20
2018-09-21T03:37:52.530Z,79.03
2018-09-21T03:40:21.472Z,78.73
2018-09-21T03:42:50.505Z,79.98
2018-09-21T03:45:20.661Z,77.52
2018-09-21T03:47:49.494Z,77.40
2018-09-21T03:50:19.677Z,79.22
2018-09-21T03:52:48.514Z,81.44
2018-09-21T03:55:17.363Z,81.37
2018-09-21T03:57:46.317Z,81.31
2018-09-21T04:00:15.138Z,80.91
2018-09-21T04:02:43.989Z,83.05
2018-09-21T04:05:14.213Z,81.28
2018-09-21T04:07:43.069Z,80.36
2018-09-21T04:10:11.887Z,78.05
2018-09-21T04:12:42.095Z,77.71
2018-09-21T04:15:10.976Z,78.62
2018-09-21T04:17:39.761Z,79.52
2018-09-21T04:20:09.986Z,79.60
2018-09-21T04:22:38.945Z,79.50
2018-09-21T04:25:09.128Z,78.85
2018-09-21T04:27:42.066Z,79.90
2018-09-21T04:32:34.075Z,79.64
2018-09-21T04:35:02.936Z,79.20
2018-09-21T04:37:31.754Z,79.91
2018-09-21T04:40:00.606Z,79.39
2018-09-21T04:42:29.495Z,78.72
2018-09-21T04:44:58.367Z,78.57
2018-09-21T04:47:28.321Z,77.78
2018-09-21T04:49:57.253Z,77.04
2018-09-21T04:52:26.099Z,77.09
2018-09-21T04:54:54.976Z,77.47
2018-09-21T04:57:23.840Z,75.99
2018-09-21T04:59:52.690Z,75.29
2018-09-21T05:02:21.509Z,75.70
2018-09-21T05:04:50.395Z,74.39
2018-09-21T05:07:19.180Z,74.88
2018-09-21T05:09:48.007Z,74.46
2018-09-21T05:12:17.022Z,73.03
2018-09-21T05:14:46.586Z,73.48
2018-09-21T05:17:15.477Z,73.31
2018-09-21T05:19:44.401Z,72.27
2018-09-21T05:22:13.406Z,72.01
2018-09-21T05:24:48.437Z,71.03
2018-09-21T05:27:17.322Z,70.75
2018-09-21T05:29:46.168Z,70.43
2018-09-21T05:32:15.075Z,70.37
2018-09-21T05:34:44.095Z,70.23
2018-09-21T05:37:12.774Z,69.55
2018-09-21T05:39:41.582Z,69.44
2018-09-21T05:42:10.442Z,69.40
2018-09-21T05:44:39.281Z,69.51
2018-09-21T05:47:08.350Z,68.37
2018-09-21T05:49:37.165Z,68.00
2018-09-21T05:52:06.413Z,67.44
2018-09-21T05:54:35.297Z,67.98
2018-09-21T05:57:04.109Z,69.12
2018-09-21T05:59:33.005Z,69.45
2018-09-21T06:02:01.889Z,69.38
2018-09-21T06:04:30.706Z,69.16
2018-09-21T06:06:59.715Z,67.78
2018-09-21T06:09:28.511Z,67.56
2018-09-21T06:11:57.319Z,66.94
2018-09-21T06:14:26.196Z,65.95
2018-09-21T06:16:55.277Z,65.34
2018-09-21T06:19:24.124Z,64.48
2018-09-21T06:21:52.897Z,63.87
2018-09-21T06:24:21.796Z,63.48
2018-09-21T06:26:50.635Z,63.58
2018-09-21T06:29:19.581Z,63.16
2018-09-21T06:31:48.529Z,62.76
2018-09-21T06:34:18.597Z,62.44
2018-09-21T06:36:47.587Z,62.88
2018-09-21T06:39:16.422Z,62.12
2018-09-21T06:41:45.337Z,61.93
2018-09-21T06:44:14.150Z,62.90
2018-09-21T06:46:42.966Z,62.63
2018-09-21T06:49:13.129Z,61.83
2018-09-21T06:51:41.965Z,61.33
2018-09-21T06:54:10.824Z,63.23
2018-09-21T06:56:39.671Z,62.89
2018-09-21T06:59:08.584Z,62.81
2018-09-21T07:01:37.594Z,62.38
2018-09-21T07:04:06.403Z,61.63
2018-09-21T07:06:35.245Z,61.46
2018-09-21T07:09:05.006Z,60.70
2018-09-21T07:11:33.828Z,60.62
2018-09-21T07:14:02.661Z,60.28
2018-09-21T07:16:32.973Z,59.38
2018-09-21T07:19:01.833Z,59.62
2018-09-21T07:21:30.788Z,59.16
2018-09-21T07:23:59.626Z,59.21
2018-09-21T07:26:28.544Z,58.80
2018-09-21T07:28:58.785Z,59.20
2018-09-21T07:31:27.765Z,58.79
2018-09-21T07:33:56.654Z,58.58
2018-09-21T07:36:26.015Z,58.31
2018-09-21T07:38:54.834Z,57.58
2018-09-21T07:41:24.981Z,56.92
2018-09-21T07:43:54.134Z,56.59
2018-09-21T07:46:23.025Z,56.04
2018-09-21T07:48:51.826Z,56.55
2018-09-21T07:51:26.794Z,56.11
2018-09-21T07:53:55.625Z,55.33
2018-09-21T07:56:24.441Z,55.31
2018-09-21T07:58:53.385Z,54.91
2018-09-21T08:01:22.348Z,54.50
2018-09-21T08:03:51.157Z,53.78
2018-09-21T08:06:20.065Z,53.90
2018-09-21T08:08:48.876Z,54.52
2018-09-21T08:11:17.992Z,54.33
2018-09-21T08:13:46.854Z,54.28
2018-09-21T08:16:15.690Z,54.31
2018-09-21T08:18:44.530Z,54.35
2018-09-21T08:21:14.942Z,54.65
2018-09-21T08:23:43.741Z,54.33
2018-09-21T08:26:12.535Z,54.35
2018-09-21T08:28:42.629Z,55.13
2018-09-21T08:31:11.543Z,55.55
2018-09-21T08:33:40.345Z,55.57
2018-09-21T08:36:09.230Z,55.96
2018-09-21T08:38:38.042Z,55.87
2018-09-21T08:41:07.330Z,56.22
2018-09-21T08:43:37.413Z,56.56
2018-09-21T08:46:06.225Z,57.02
2018-09-21T08:48:35.023Z,57.33
2018-09-21T08:51:05.394Z,57.67
2018-09-21T08:53:34.363Z,57.47
2018-09-21T08:56:03.192Z,57.30
2018-09-21T08:58:33.266Z,57.41
2018-09-21T09:01:02.073Z,57.51
2018-09-21T09:03:30.940Z,56.98
2018-09-21T09:05:59.804Z,56.79
2018-09-21T09:08:28.623Z,56.40
2018-09-21T09:10:57.460Z,57.43
2018-09-21T09:13:26.397Z,57.67
2018-09-21T09:15:55.355Z,57.17
2018-09-21T09:18:24.240Z,56.68
2018-09-21T09:20:53.098Z,56.67
2018-09-21T09:23:21.887Z,56.93
2018-09-21T09:25:50.725Z,57.06
2018-09-21T09:28:19.578Z,57.20
2018-09-21T09:30:48.491Z,57.58
2018-09-21T09:33:17.304Z,58.13
2018-09-21T09:35:46.249Z,57.59
2018-09-21T09:38:15.111Z,57.50
2018-09-21T09:40:44.078Z,57.54
2018-09-21T09:43:14.644Z,57.50
2018-09-21T09:45:43.709Z,57.36
2018-09-21T09:48:12.641Z,56.76
2018-09-21T09:50:42.986Z,56.36
2018-09-21T09:53:11.851Z,56.04
2018-09-21T09:55:40.801Z,56.02
2018-09-21T09:58:09.839Z,55.88
2018-09-21T10:00:43.706Z,55.27
2018-09-21T10:03:12.713Z,54.62
2018-09-21T10:05:42.991Z,54.00
2018-09-21T10:08:12.969Z,53.46
2018-09-21T10:10:42.213Z,52.26
2018-09-21T10:13:11.607Z,51.46
2018-09-21T10:15:40.668Z,50.50
2018-09-21T10:18:09.839Z,49.97
2018-09-21T10:20:38.909Z,49.17
2018-09-21T10:23:07.959Z,49.18
2018-09-21T10:25:38.256Z,48.88
2018-09-21T10:28:07.480Z,48.62
2018-09-21T10:30:36.385Z,49.45
2018-09-21T10:33:06.623Z,50.01
2018-09-21T10:35:35.585Z,47.91
2018-09-21T10:38:04.493Z,46.81
2018-09-21T10:40:34.695Z,48.43
2018-09-21T10:43:05.070Z,48.54
2018-09-21T10:45:36.190Z,48.54
2018-09-21T10:48:05.382Z,49.02
2018-09-21T10:50:35.767Z,48.87
2018-09-21T10:53:04.752Z,48.88
2018-09-21T10:55:33.786Z,48.43
2018-09-21T10:58:04.134Z,48.72
2018-09-21T11:00:33.102Z,47.93
2018-09-21T11:03:02.126Z,47.84
2018-09-21T11:05:31.119Z,46.87
2018-09-21T11:08:00.181Z,48.36
2018-09-21T11:10:30.356Z,47.95
2018-09-21T11:13:00.747Z,46.58
2018-09-21T11:15:29.699Z,49.36
2018-09-21T11:17:58.624Z,49.99
2018-09-21T11:20:27.593Z,48.83
2018-09-21T11:22:56.516Z,49.99
2018-09-21T11:25:25.465Z,50.54
2018-09-21T11:27:54.633Z,50.54
2018-09-21T11:30:23.566Z,49.99
2018-09-21T11:32:52.516Z,50.07
2018-09-21T11:35:21.569Z,50.04
2018-09-21T11:37:50.528Z,49.34
2018-09-21T11:40:19.556Z,51.04
2018-09-21T11:42:48.565Z,50.59
2018-09-21T11:45:17.643Z,52.54
2018-09-21T11:47:46.632Z,53.82
2018-09-21T11:50:16.807Z,54.19
2018-09-21T11:52:45.723Z,56.20
2018-09-21T11:55:16.028Z,56.90
2018-09-21T11:57:45.007Z,55.43
2018-09-21T12:00:14.012Z,54.57
2018-09-21T12:02:44.343Z,55.02
2018-09-21T12:05:13.352Z,55.00
2018-09-21T12:07:42.318Z,54.73
2018-09-21T12:10:11.360Z,54.92
2018-09-21T12:12:40.431Z,55.71
2018-09-21T12:15:09.512Z,55.68
2018-09-21T12:17:38.503Z,54.67
2018-09-21T12:20:07.567Z,56.03
2018-09-21T12:22:36.627Z,55.81
2018-09-21T12:25:06.021Z,56.00
2018-09-21T12:27:35.028Z,56.46
2018-09-21T12:30:04.013Z,56.87
2018-09-21T12:32:32.921Z,59.06
2018-09-21T12:35:01.909Z,57.87
2018-09-21T12:37:30.866Z,57.65
2018-09-21T12:39:59.799Z,58.46
2018-09-21T12:42:28.863Z,57.79
2018-09-21T12:44:57.866Z,58.22
2018-09-21T12:47:26.802Z,59.29
2018-09-21T12:49:55.810Z,59.61
2018-09-21T12:52:24.829Z,58.76
2018-09-21T12:54:53.744Z,58.36
2018-09-21T12:57:24.070Z,59.31
2018-09-21T12:59:53.052Z,60.82
2018-09-21T13:02:22.025Z,59.84
2018-09-21T13:04:51.134Z,59.30
2018-09-21T13:07:20.087Z,59.48
2018-09-21T13:09:50.437Z,60.28
2018-09-21T13:12:19.409Z,59.51
2018-09-21T13:14:48.384Z,60.21
2018-09-21T13:17:17.336Z,61.20
2018-09-21T13:19:46.444Z,61.95
2018-09-21T13:22:15.374Z,60.90
2018-09-21T13:24:44.591Z,61.38
2018-09-21T13:27:13.590Z,60.12
2018-09-21T13:29:42.685Z,60.37
2018-09-21T13:32:11.693Z,59.07
2018-09-21T13:34:40.657Z,58.11
2018-09-21T13:37:09.671Z,57.88
2018-09-21T13:39:38.670Z,57.72
2018-09-21T13:42:07.699Z,56.97
2018-09-21T13:44:36.627Z,57.33
2018-09-21T13:47:05.759Z,56.63
2018-09-21T13:49:34.790Z,57.51
2018-09-21T13:52:03.913Z,58.70
2018-09-21T13:54:32.899Z,59.45
2018-09-21T13:57:01.828Z,59.82
2018-09-21T13:59:30.768Z,59.22
2018-09-21T14:01:59.718Z,60.39
2018-09-21T14:04:28.654Z,60.99
2018-09-21T14:06:57.576Z,60.09
2018-09-21T14:09:26.594Z,59.67
2018-09-21T14:11:55.721Z,60.08
2018-09-21T14:14:24.895Z,58.88
2018-09-21T14:16:53.815Z,57.13
2018-09-21T14:19:23.059Z,58.46
2018-09-21T14:21:52.189Z,57.43
2018-09-21T14:24:21.121Z,58.95
2018-09-21T14:26:50.101Z,59.79
2018-09-21T14:29:19.010Z,58.60
2018-09-21T14:31:47.947Z,59.79
2018-09-21T14:34:18.291Z,59.81
2018-09-21T14:36:47.237Z,59.52
2018-09-21T14:39:16.231Z,60.32
2018-09-21T14:41:46.411Z,61.35
2018-09-21T14:44:15.322Z,61.82
2018-09-21T14:46:44.399Z,62.57
2018-09-21T14:49:14.680Z,63.28
2018-09-21T14:51:43.690Z,63.91
2018-09-21T14:54:12.720Z,64.29
2018-09-21T14:56:41.683Z,64.37
2018-09-21T14:59:10.630Z,65.18
2018-09-21T15:01:39.578Z,66.05
2018-09-21T15:04:08.694Z,65.07
2018-09-21T15:06:37.644Z,65.27
2018-09-21T15:09:09.301Z,65.59
2018-09-21T15:11:38.855Z,66.32
2018-09-21T15:14:07.906Z,66.33
2018-09-21T15:16:38.374Z,67.37
2018-09-21T15:19:07.345Z,67.25
2018-09-21T15:21:36.274Z,67.32
2018-09-21T15:24:05.388Z,67.58
2018-09-21T15:26:34.532Z,68.05
2018-09-21T15:29:03.537Z,67.58
2018-09-21T15:31:32.555Z,67.89
2018-09-21T15:34:01.466Z,67.96
2018-09-21T15:36:31.735Z,68.14
2018-09-21T15:39:00.685Z,68.27
2018-09-21T15:41:29.665Z,68.03
2018-09-21T15:43:58.652Z,68.15
2018-09-21T15:46:27.558Z,68.10
2018-09-21T15:48:56.603Z,68.44
2018-09-21T15:51:26.825Z,69.17
2018-09-21T15:53:55.770Z,69.24
2018-09-21T15:56:24.747Z,69.38
2018-09-21T15:58:55.149Z,69.90
2018-09-21T16:01:24.097Z,70.15
2018-09-21T16:03:54.378Z,69.47
2018-09-21T16:06:23.305Z,70.99
2018-09-21T16:08:52.213Z,71.16
2018-09-21T16:11:21.487Z,71.58
2018-09-21T16:13:50.439Z,71.62
2018-09-21T16:16:20.745Z,71.85
2018-09-21T16:18:49.905Z,71.67
2018-09-21T16:21:18.917Z,71.43
2018-09-21T16:23:47.841Z,71.13
2018-09-21T16:26:18.187Z,71.74
2018-09-21T16:28:47.103Z,71.82
2018-09-21T16:31:16.046Z,71.51
2018-09-21T16:33:46.448Z,70.81
2018-09-21T16:36:15.494Z,70.41
2018-09-21T16:38:44.467Z,70.29
2018-09-21T16:41:13.487Z,70.52
2018-09-21T16:43:42.390Z,70.62
2018-09-21T16:46:11.354Z,71.22
2018-09-21T16:48:40.284Z,71.19
2018-09-21T16:51:10.515Z,71.42
2018-09-21T16:53:39.470Z,71.81
2018-09-21T16:56:09.890Z,71.22
2018-09-21T16:58:38.819Z,70.83
2018-09-21T17:01:07.894Z,70.36
2018-09-21T17:03:38.247Z,69.95
2018-09-21T17:06:07.221Z,70.54
2018-09-21T17:08:37.471Z,70.47
2018-09-21T17:11:06.490Z,70.32
2018-09-21T17:13:35.452Z,69.60
2018-09-21T17:16:04.431Z,69.35
2018-09-21T17:18:33.388Z,69.18
2018-09-21T17:21:03.617Z,68.92
2018-09-21T17:23:32.551Z,69.23
2018-09-21T17:26:01.605Z,69.55
2018-09-21T17:28:32.099Z,69.63
2018-09-21T17:31:01.161Z,69.99
2018-09-21T17:33:30.103Z,70.34
2018-09-21T17:36:00.431Z,70.54
2018-09-21T17:38:29.481Z,70.82
2018-09-21T17:40:58.649Z,71.43
2018-09-21T17:43:27.642Z,71.18
2018-09-21T17:45:56.594Z,71.71
2018-09-21T17:48:25.549Z,71.43
2018-09-21T17:50:54.567Z,72.12
2018-09-21T17:53:23.523Z,72.41
2018-09-21T17:55:52.502Z,73.00
2018-09-21T17:58:21.524Z,73.10
2018-09-21T18:00:50.711Z,72.65
2018-09-21T18:03:19.634Z,73.30
2018-09-21T18:05:48.644Z,73.34
2018-09-21T18:08:17.608Z,73.82
2018-09-21T18:10:46.545Z,74.34
2018-09-21T18:13:16.884Z,73.65
2018-09-21T18:15:45.861Z,72.90
2018-09-21T18:18:14.826Z,73.60
2018-09-21T18:20:43.735Z,74.14
2018-09-21T18:23:12.605Z,74.14
2018-09-21T18:25:41.568Z,74.63
2018-09-21T18:28:11.880Z,75.71
2018-09-21T18:30:40.760Z,76.12
2018-09-21T18:33:09.738Z,76.91
2018-09-21T18:35:38.779Z,77.03
2018-09-21T18:38:07.735Z,78.19
2018-09-21T18:40:36.633Z,77.26
2018-09-21T18:43:05.731Z,77.60
2018-09-21T18:45:35.947Z,78.38
2018-09-21T18:48:04.873Z,78.37
2018-09-21T18:50:33.861Z,78.55
2018-09-21T18:53:04.060Z,79.12
2018-09-21T18:55:33.147Z,78.73
2018-09-21T18:58:02.179Z,78.97
2018-09-21T19:00:31.258Z,78.61
2018-09-21T19:03:00.275Z,78.94
2018-09-21T19:05:29.189Z,78.86
2018-09-21T19:07:58.164Z,79.19
2018-09-21T19:10:27.147Z,78.67
2018-09-21T19:12:56.151Z,79.28
2018-09-21T19:15:25.213Z,79.13
2018-09-21T19:17:55.363Z,79.39
2018-09-21T19:20:24.233Z,80.17
2018-09-21T19:22:54.879Z,79.62
2018-09-21T19:25:23.822Z,80.19
2018-09-21T19:27:52.761Z,80.31
2018-09-21T19:30:21.734Z,79.80
2018-09-21T19:32:50.666Z,80.18
2018-09-21T19:35:20.978Z,80.33
2018-09-21T19:37:49.974Z,79.78
2018-09-21T19:40:18.977Z,79.84
2018-09-21T19:42:48.032Z,79.99
2018-09-21T19:45:17.021Z,79.69
2018-09-21T19:47:45.991Z,79.62
2018-09-21T19:50:14.898Z,80.08
2018-09-21T19:52:43.859Z,79.76
2018-09-21T19:55:12.763Z,80.68
2018-09-21T19:57:41.689Z,80.87
2018-09-21T20:00:11.980Z,80.23
2018-09-21T20:02:40.850Z,80.49
2018-09-21T20:05:09.768Z,80.31
2018-09-21T20:07:38.716Z,80.55
2018-09-21T20:10:07.776Z,80.57
2018-09-21T20:12:36.711Z,80.19
2018-09-21T20:15:05.732Z,80.35
2018-09-21T20:17:34.678Z,80.42
2018-09-21T20:20:04.925Z,81.05
2018-09-21T20:22:33.823Z,81.22
2018-09-21T20:25:02.822Z,80.55
2018-09-21T20:27:31.785Z,81.32
2018-09-21T20:30:06.988Z,80.47
2018-09-21T20:32:41.095Z,81.17
2018-09-21T20:35:10.052Z,81.41
2018-09-21T20:37:39.067Z,81.05
2018-09-21T20:40:09.406Z,80.58
2018-09-21T20:42:39.619Z,81.11
2018-09-21T20:45:09.874Z,81.33
2018-09-21T20:47:38.751Z,81.09
2018-09-21T20:50:07.735Z,81.38
2018-09-21T20:52:37.987Z,82.17
2018-09-21T20:55:07.044Z,81.71
2018-09-21T20:57:36.004Z,81.71
2018-09-21T21:00:06.342Z,82.16
2018-09-21T21:02:35.277Z,82.42
2018-09-21T21:05:04.268Z,82.35
2018-09-21T21:07:33.325Z,82.91
2018-09-21T21:10:02.269Z,82.66
2018-09-21T21:12:31.239Z,82.99
2018-09-21T21:15:01.678Z,83.00
2018-09-21T21:17:30.636Z,82.44
2018-09-21T21:19:59.622Z,82.65
2018-09-21T21:22:28.585Z,82.94
2018-09-21T21:24:57.550Z,83.06
2018-09-21T21:27:26.527Z,83.23
2018-09-21T21:29:55.564Z,83.23
2018-09-21T21:32:24.590Z,83.09
2018-09-21T21:34:53.526Z,83.50
2018-09-21T21:37:22.551Z,83.20
2018-09-21T21:39:51.528Z,83.12
2018-09-21T21:42:20.387Z,83.30
2018-09-21T21:44:49.246Z,83.27
2018-09-21T21:47:18.427Z,83.22
2018-09-21T21:49:47.331Z,84.03
2018-09-21T21:52:16.263Z,84.22
2018-09-21T21:54:45.267Z,83.77
2018-09-21T21:57:14.245Z,82.74
2018-09-21T21:59:44.132Z,83.22
2018-09-21T22:02:13.783Z,83.40
2018-09-21T22:04:43.058Z,83.20
2018-09-21T22:07:12.830Z,83.86
2018-09-21T22:09:43.807Z,83.65
2018-09-21T22:12:18.346Z,84.69
2018-09-21T22:14:54.908Z,84.92
2018-09-21T22:17:27.120Z,84.15
2018-09-21T22:19:57.029Z,83.66
2018-09-21T22:22:27.456Z,83.58
2018-09-21T22:25:00.100Z,84.43
2018-09-21T22:27:33.795Z,84.28
2018-09-21T22:30:09.896Z,84.91
2018-09-21T22:32:44.742Z,84.31
2018-09-21T22:35:20.024Z,87.25
2018-09-21T22:37:59.549Z,88.62
2018-09-21T22:40:28.812Z,87.79
2018-09-21T22:43:01.685Z,87.43
2018-09-21T22:45:31.531Z,86.61
2018-09-21T22:48:00.520Z,87.89
2018-09-21T22:50:29.439Z,88.75
2018-09-21T22:53:00.235Z,88.12
2018-09-21T22:55:29.241Z,87.47
2018-09-21T22:57:58.133Z,88.14
2018-09-21T23:00:27.258Z,88.06
2018-09-21T23:02:56.339Z,88.29
2018-09-21T23:05:25.206Z,87.56
2018-09-21T23:07:54.059Z,86.75
2018-09-21T23:10:23.242Z,86.60
2018-09-21T23:12:52.155Z,86.21
2018-09-21T23:15:21.219Z,86.58
2018-09-21T23:17:50.088Z,87.01
2018-09-21T23:20:19.027Z,86.89
2018-09-21T23:22:47.879Z,87.21
2018-09-21T23:25:16.928Z,87.45
2018-09-21T23:27:45.804Z,87.44
2018-09-21T23:30:14.642Z,88.03
2018-09-21T23:32:43.512Z,88.13
2018-09-21T23:35:12.402Z,87.45
2018-09-21T23:37:41.239Z,86.68
2018-09-21T23:40:10.166Z,86.15
2018-09-21T23:42:39.258Z,85.12
2018-09-21T23:45:08.440Z,84.96
2018-09-21T23:47:37.314Z,85.19
2018-09-21T23:50:06.290Z,85.88
2018-09-21T23:52:35.198Z,86.08
2018-09-21T23:55:04.121Z,84.71
2018-09-21T23:57:33.132Z,84.08
